createdAt,value
2023-01-18T00:01:01.306Z,3.50
2023-01-18T00:03:43.927Z,3.15
2023-01-18T00:06:28.428Z,4.03
2023-01-18T00:09:11.029Z,3.75
2023-01-18T00:11:53.610Z,3.40
2023-01-18T00:14:36.172Z,3.55
2023-01-18T00:17:18.771Z,3.50
2023-01-18T00:20:01.388Z,3.72
2023-01-18T00:22:45.332Z,4.22
2023-01-18T00:25:27.903Z,4.15
2023-01-18T00:28:10.478Z,3.97
2023-01-18T00:30:53.106Z,3.83
2023-01-18T00:33:35.704Z,4.13
2023-01-18T00:36:18.872Z,4.03
2023-01-18T00:39:02.838Z,3.83
2023-01-18T00:41:59.319Z,4.43
2023-01-18T00:44:41.895Z,4.30
2023-01-18T00:47:24.856Z,4.38
2023-01-18T00:50:07.932Z,4.53
2023-01-18T00:52:50.776Z,4.55
2023-01-18T00:55:34.748Z,5.63
2023-01-18T00:58:17.350Z,5.10
2023-01-18T01:00:59.991Z,4.93
2023-01-18T01:04:00.098Z,5.10
2023-01-18T01:06:46.156Z,3.95
2023-01-18T01:09:30.548Z,5.22
2023-01-18T01:12:31.753Z,5.00
2023-01-18T01:15:32.004Z,4.90
2023-01-18T01:18:32.025Z,4.60
2023-01-18T01:21:32.194Z,4.70
2023-01-18T01:24:32.062Z,4.43
2023-01-18T01:27:17.380Z,4.97
2023-01-18T01:29:59.961Z,4.50
2023-01-18T01:32:42.678Z,4.68
2023-01-18T01:35:25.294Z,4.60
2023-01-18T01:38:07.875Z,5.00
2023-01-18T01:40:56.628Z,4.57
2023-01-18T01:43:42.369Z,4.68
2023-01-18T01:46:30.988Z,5.22
2023-01-18T01:49:15.093Z,4.13
2023-01-18T01:51:59.684Z,4.28
2023-01-18T01:54:44.491Z,4.43
2023-01-18T01:57:28.483Z,4.65
2023-01-18T02:00:13.719Z,5.43
2023-01-18T02:02:58.780Z,5.10
2023-01-18T02:05:43.660Z,5.28
2023-01-18T02:08:27.039Z,4.72
2023-01-18T02:11:09.604Z,5.13
2023-01-18T02:13:52.247Z,4.93
2023-01-18T02:16:40.986Z,5.20
2023-01-18T02:19:34.316Z,4.95
2023-01-18T02:22:26.325Z,5.60
2023-01-18T02:25:18.991Z,5.40
2023-01-18T02:28:13.701Z,4.95
2023-01-18T02:30:59.683Z,4.57
2023-01-18T02:33:45.561Z,4.93
2023-01-18T02:36:33.052Z,5.25
2023-01-18T02:39:31.442Z,4.80
2023-01-18T02:42:36.607Z,4.53
2023-01-18T02:45:40.980Z,4.50
2023-01-18T02:48:24.621Z,4.78
2023-01-18T02:51:07.335Z,5.13
2023-01-18T02:53:50.212Z,4.35
2023-01-18T02:56:35.889Z,4.70
2023-01-18T02:59:21.156Z,5.55
2023-01-18T03:02:07.833Z,5.07
2023-01-18T03:04:55.171Z,4.78
2023-01-18T03:07:41.508Z,5.10
2023-01-18T03:10:26.934Z,5.65
2023-01-18T03:13:13.930Z,5.18
2023-01-18T03:15:58.944Z,5.05
2023-01-18T03:19:00.348Z,5.28
2023-01-18T03:21:46.165Z,6.18
2023-01-18T03:24:29.419Z,5.88
2023-01-18T03:27:30.233Z,5.35
2023-01-18T03:30:30.867Z,5.82
2023-01-18T03:33:31.324Z,5.35
2023-01-18T03:36:18.031Z,5.53
2023-01-18T03:39:02.173Z,5.40
2023-01-18T03:41:46.610Z,5.57
2023-01-18T03:44:31.454Z,5.90
2023-01-18T03:47:14.126Z,5.47
2023-01-18T03:49:58.024Z,5.90
2023-01-18T03:52:42.927Z,5.88
2023-01-18T03:55:28.280Z,6.22
2023-01-18T03:58:11.988Z,6.05
2023-01-18T04:00:55.002Z,5.70
2023-01-18T04:03:38.107Z,5.82
2023-01-18T04:06:22.909Z,5.93
2023-01-18T04:09:08.298Z,5.57
2023-01-18T04:11:50.941Z,6.10
2023-01-18T04:14:33.959Z,6.38
2023-01-18T04:17:17.184Z,6.05
2023-01-18T04:19:59.809Z,6.47
2023-01-18T04:22:42.385Z,6.65
2023-01-18T04:25:26.902Z,6.28
2023-01-18T04:28:09.465Z,6.30
2023-01-18T04:30:52.096Z,5.95
2023-01-18T04:33:34.672Z,6.35
2023-01-18T04:36:17.203Z,6.13
2023-01-18T04:38:59.776Z,6.70
2023-01-18T04:41:44.689Z,6.53
2023-01-18T04:44:27.288Z,6.53
2023-01-18T04:47:09.840Z,6.85
2023-01-18T04:49:52.386Z,6.28
2023-01-18T04:52:34.939Z,6.55
2023-01-18T04:55:17.616Z,6.45
2023-01-18T04:58:01.531Z,6.50
2023-01-18T05:00:44.555Z,6.10
2023-01-18T05:03:27.167Z,6.40
2023-01-18T05:06:10.884Z,6.85
2023-01-18T05:08:53.489Z,6.03
2023-01-18T05:11:36.108Z,6.15
2023-01-18T05:14:20.000Z,6.32
2023-01-18T05:17:02.575Z,6.00
2023-01-18T05:19:46.686Z,6.40
2023-01-18T05:22:29.280Z,6.20
2023-01-18T05:25:11.872Z,6.20
2023-01-18T05:27:54.433Z,6.45
2023-01-18T05:30:41.150Z,6.28
2023-01-18T05:33:23.835Z,7.03
2023-01-18T05:36:06.725Z,6.03
2023-01-18T05:38:49.309Z,6.65
2023-01-18T05:41:31.924Z,6.30
2023-01-18T05:44:14.548Z,6.78
2023-01-18T05:46:58.680Z,6.22
2023-01-18T05:49:42.051Z,6.93
2023-01-18T05:52:24.732Z,6.32
2023-01-18T05:55:07.707Z,6.60
2023-01-18T05:57:50.328Z,6.00
2023-01-18T06:00:34.309Z,6.32
2023-01-18T06:03:18.366Z,6.70
2023-01-18T06:06:01.692Z,5.85
2023-01-18T06:08:44.307Z,6.22
2023-01-18T06:11:26.891Z,6.22
2023-01-18T06:14:09.604Z,6.40
2023-01-18T06:16:52.180Z,6.10
2023-01-18T06:19:36.100Z,7.38
2023-01-18T06:22:18.819Z,6.63
2023-01-18T06:25:01.427Z,6.95
2023-01-18T06:27:44.027Z,6.13
2023-01-18T06:30:26.609Z,6.75
2023-01-18T06:33:09.437Z,6.93
2023-01-18T06:35:53.534Z,6.50
2023-01-18T06:38:36.184Z,6.65
2023-01-18T06:41:18.742Z,6.75
2023-01-18T06:44:01.385Z,6.80
2023-01-18T06:46:44.331Z,6.88
2023-01-18T06:49:27.341Z,6.10
2023-01-18T06:52:11.253Z,6.65
2023-01-18T06:54:53.852Z,6.75
2023-01-18T06:57:36.591Z,6.93
2023-01-18T07:00:19.585Z,7.32
2023-01-18T07:03:02.189Z,7.15
2023-01-18T07:05:46.451Z,7.68
2023-01-18T07:08:31.877Z,7.30
2023-01-18T07:11:14.665Z,7.35
2023-01-18T07:13:57.241Z,7.88
2023-01-18T07:16:40.114Z,7.85
2023-01-18T07:19:22.786Z,7.93
2023-01-18T07:22:05.474Z,7.20
2023-01-18T07:24:49.409Z,7.80
2023-01-18T07:27:31.996Z,7.47
2023-01-18T07:30:14.895Z,7.13
2023-01-18T07:32:57.761Z,7.53
2023-01-18T07:35:40.570Z,8.27
2023-01-18T07:38:23.504Z,7.88
2023-01-18T07:41:09.233Z,7.88
2023-01-18T07:43:53.891Z,6.82
2023-01-18T07:46:36.714Z,8.07
2023-01-18T07:49:19.379Z,8.27
2023-01-18T07:52:02.031Z,8.00
2023-01-18T07:54:44.633Z,7.60
2023-01-18T07:57:28.971Z,7.68
2023-01-18T08:00:12.247Z,8.02
2023-01-18T08:02:59.265Z,7.88
2023-01-18T08:05:43.014Z,7.60
2023-01-18T08:08:27.562Z,7.75
2023-01-18T08:11:10.626Z,8.90
2023-01-18T08:13:54.581Z,7.70
2023-01-18T08:16:37.360Z,7.82
2023-01-18T08:19:19.971Z,7.55
2023-01-18T08:22:02.630Z,8.20
2023-01-18T08:37:20.647Z,8.43
2023-01-18T08:40:03.303Z,7.32
2023-01-18T08:42:46.728Z,8.88
2023-01-18T08:45:29.856Z,8.40
2023-01-18T08:48:12.451Z,7.88
2023-01-18T08:50:55.068Z,8.65
2023-01-18T08:53:39.037Z,7.85
2023-01-18T08:56:21.878Z,8.13
2023-01-18T08:59:04.535Z,8.10
2023-01-18T09:01:47.220Z,8.40
2023-01-18T09:04:30.095Z,8.55
2023-01-18T09:07:12.692Z,8.45
2023-01-18T09:09:56.638Z,8.45
2023-01-18T09:12:39.445Z,8.45
2023-01-18T09:15:22.180Z,8.65
2023-01-18T09:18:06.272Z,7.35
2023-01-18T09:20:48.898Z,8.23
2023-01-18T09:23:31.728Z,8.57
2023-01-18T09:26:17.023Z,8.85
2023-01-18T09:28:59.809Z,9.02
2023-01-18T09:31:42.477Z,8.63
2023-01-18T09:34:25.175Z,8.43
2023-01-18T09:37:07.811Z,8.50
2023-01-18T09:39:52.604Z,8.60
2023-01-18T09:42:38.992Z,8.32
2023-01-18T09:45:28.806Z,7.63
2023-01-18T09:48:16.434Z,7.85
2023-01-18T09:51:00.586Z,8.07
2023-01-18T09:53:51.385Z,8.63
2023-01-18T09:56:37.307Z,8.13
2023-01-18T09:59:27.979Z,7.78
2023-01-18T10:02:17.492Z,7.93
2023-01-18T10:05:02.467Z,7.63
2023-01-18T10:07:48.144Z,7.78
2023-01-18T10:10:33.959Z,8.50
2023-01-18T10:13:28.983Z,7.70
2023-01-18T10:16:16.769Z,8.07
2023-01-18T10:18:59.439Z,8.13
2023-01-18T10:21:48.230Z,7.82
2023-01-18T10:24:40.445Z,7.85
2023-01-18T10:27:35.840Z,8.38
2023-01-18T10:30:35.970Z,7.35
2023-01-18T10:33:23.084Z,8.15
2023-01-18T10:36:08.324Z,8.15
2023-01-18T10:38:52.844Z,8.13
2023-01-18T10:41:38.041Z,8.57
2023-01-18T10:44:21.411Z,7.63
2023-01-18T10:47:04.066Z,7.60
2023-01-18T10:49:50.295Z,7.32
2023-01-18T10:52:33.305Z,8.43
2023-01-18T10:55:17.305Z,8.02
2023-01-18T10:58:00.539Z,7.90
2023-01-18T11:00:43.460Z,8.10
2023-01-18T11:03:27.746Z,7.35
2023-01-18T11:06:11.753Z,8.15
2023-01-18T11:08:55.283Z,7.60
2023-01-18T11:11:55.504Z,8.32
2023-01-18T11:14:39.586Z,7.93
2023-01-18T11:17:22.407Z,8.18
2023-01-18T11:20:08.652Z,8.05
2023-01-18T11:22:56.492Z,8.27
2023-01-18T11:25:40.353Z,7.43
2023-01-18T11:28:24.629Z,7.85
2023-01-18T11:31:09.618Z,7.43
2023-01-18T11:33:53.703Z,7.70
2023-01-18T11:36:38.331Z,7.63
2023-01-18T11:39:26.540Z,7.07
2023-01-18T11:42:18.749Z,7.13
2023-01-18T11:45:11.647Z,7.60
2023-01-18T11:48:02.288Z,7.22
2023-01-18T11:50:47.691Z,6.90
2023-01-18T11:53:36.002Z,6.40
2023-01-18T11:56:25.554Z,7.25
2023-01-18T11:59:15.665Z,6.10
2023-01-18T12:02:12.644Z,6.65
2023-01-18T12:05:01.135Z,6.72
2023-01-18T12:07:49.070Z,6.00
2023-01-18T12:10:34.108Z,5.18
2023-01-18T12:13:24.173Z,5.35
2023-01-18T12:16:13.521Z,5.55
2023-01-18T12:19:13.081Z,6.32
2023-01-18T12:22:07.190Z,5.32
2023-01-18T12:24:56.302Z,5.28
2023-01-18T12:27:43.174Z,5.05
2023-01-18T12:30:31.609Z,5.82
2023-01-18T12:33:20.593Z,5.50
2023-01-18T12:36:12.652Z,5.35
2023-01-18T12:38:56.249Z,5.38
2023-01-18T12:41:43.307Z,5.38
2023-01-18T12:44:39.521Z,5.07
2023-01-18T12:47:32.787Z,5.18
2023-01-18T12:50:18.776Z,5.65
2023-01-18T12:53:02.553Z,4.95
2023-01-18T12:55:46.935Z,4.57
2023-01-18T12:58:29.550Z,4.80
2023-01-18T13:01:14.288Z,4.88
2023-01-18T13:04:01.557Z,4.90
2023-01-18T13:06:44.844Z,5.05
2023-01-18T13:09:33.300Z,4.88
2023-01-18T13:12:16.206Z,4.22
2023-01-18T13:15:03.692Z,4.80
2023-01-18T13:17:49.816Z,4.82
2023-01-18T13:20:40.021Z,4.75
2023-01-18T13:23:28.497Z,4.85
2023-01-18T13:26:18.381Z,4.68
2023-01-18T13:29:08.337Z,4.53
2023-01-18T13:31:51.158Z,5.03
2023-01-18T13:34:44.921Z,4.70
2023-01-18T13:37:42.651Z,4.78
2023-01-18T13:40:27.287Z,4.45
2023-01-18T13:43:24.775Z,4.47
2023-01-18T13:46:20.077Z,4.80
2023-01-18T13:49:36.133Z,4.50
2023-01-18T13:52:30.115Z,4.30
2023-01-18T13:55:26.526Z,4.97
2023-01-18T13:58:18.217Z,4.38
2023-01-18T14:01:03.401Z,4.30
2023-01-18T14:03:48.616Z,4.20
2023-01-18T14:06:32.627Z,4.75
2023-01-18T14:09:18.364Z,4.93
2023-01-18T14:12:02.425Z,4.30
2023-01-18T14:14:55.134Z,4.40
2023-01-18T14:17:49.893Z,4.38
2023-01-18T14:21:01.807Z,4.05
2023-01-18T14:24:06.101Z,4.68
2023-01-18T14:26:49.216Z,4.78
2023-01-18T14:29:36.103Z,4.50
2023-01-18T14:32:21.661Z,4.45
2023-01-18T14:35:05.420Z,4.60
2023-01-18T14:37:48.341Z,5.18
2023-01-18T14:40:31.988Z,4.43
2023-01-18T14:43:16.556Z,4.45
2023-01-18T14:46:01.714Z,4.15
2023-01-18T14:48:48.157Z,4.60
2023-01-18T14:51:31.999Z,4.45
2023-01-18T14:54:17.897Z,4.35
2023-01-18T14:57:04.912Z,4.80
2023-01-18T14:59:51.648Z,4.63
2023-01-18T15:02:39.161Z,4.32
2023-01-18T15:05:21.862Z,4.45
2023-01-18T15:08:05.077Z,4.82
2023-01-18T15:10:48.210Z,4.50
2023-01-18T15:13:30.877Z,4.68
2023-01-18T15:16:13.749Z,4.78
2023-01-18T15:18:58.597Z,4.18
2023-01-18T15:21:41.308Z,4.60
2023-01-18T15:24:24.799Z,4.63
2023-01-18T15:27:12.175Z,4.30
2023-01-18T15:29:55.618Z,4.50
2023-01-18T15:32:38.319Z,4.50
2023-01-18T15:35:23.830Z,4.47
2023-01-18T15:38:06.520Z,5.00
2023-01-18T15:40:54.819Z,4.53
2023-01-18T15:43:38.598Z,4.22
2023-01-18T15:46:21.218Z,4.05
2023-01-18T15:49:05.249Z,4.45
2023-01-18T15:51:56.957Z,4.63
2023-01-18T15:54:40.093Z,4.32
2023-01-18T15:57:23.583Z,4.63
2023-01-18T16:00:06.869Z,4.25
2023-01-18T16:02:49.904Z,4.22
2023-01-18T16:05:32.839Z,4.60
2023-01-18T16:08:22.723Z,4.32
2023-01-18T16:11:05.807Z,4.68
2023-01-18T16:13:56.919Z,4.00
2023-01-18T16:16:40.177Z,4.45
2023-01-18T16:19:25.671Z,4.28
2023-01-18T16:22:18.112Z,4.55
2023-01-18T16:25:03.353Z,4.72
2023-01-18T16:27:49.869Z,5.05
2023-01-18T16:30:34.941Z,4.90
2023-01-18T16:33:18.988Z,5.10
2023-01-18T16:36:02.999Z,5.18
2023-01-18T16:38:45.675Z,4.72
2023-01-18T16:41:29.633Z,5.20
2023-01-18T16:44:12.448Z,5.55
2023-01-18T16:46:55.015Z,5.68
2023-01-18T16:49:38.929Z,5.28
2023-01-18T16:52:21.546Z,6.18
2023-01-18T16:55:04.179Z,5.68
2023-01-18T16:57:48.902Z,5.68
2023-01-18T17:00:36.639Z,5.30
2023-01-18T17:03:19.280Z,5.82
2023-01-18T17:06:01.938Z,5.88
2023-01-18T17:08:44.655Z,5.45
2023-01-18T17:11:27.315Z,5.70
2023-01-18T17:14:11.379Z,6.15
2023-01-18T17:16:54.428Z,6.25
2023-01-18T17:19:37.751Z,5.75
2023-01-18T17:22:20.388Z,5.80
2023-01-18T17:25:03.054Z,5.90
2023-01-18T17:27:46.038Z,6.05
2023-01-18T17:30:30.150Z,6.07
2023-01-18T17:33:16.500Z,5.90
2023-01-18T17:35:59.152Z,6.47
2023-01-18T17:38:41.760Z,5.57
2023-01-18T17:41:27.635Z,5.97
2023-01-18T17:44:11.344Z,5.38
2023-01-18T17:46:55.361Z,5.85
2023-01-18T17:49:41.213Z,5.43
2023-01-18T17:52:24.016Z,6.20
2023-01-18T17:55:07.604Z,6.50
2023-01-18T17:57:50.238Z,6.30
2023-01-18T18:00:32.921Z,6.05
2023-01-18T18:03:17.347Z,6.32
2023-01-18T18:06:02.257Z,6.03
2023-01-18T18:08:45.124Z,6.20
2023-01-18T18:11:27.823Z,5.97
2023-01-18T18:14:10.515Z,6.30
2023-01-18T18:16:53.258Z,6.28
2023-01-18T18:19:37.347Z,6.90
2023-01-18T18:22:20.322Z,6.03
2023-01-18T18:25:03.025Z,6.60
2023-01-18T18:27:46.799Z,6.20
2023-01-18T18:30:29.748Z,6.15
2023-01-18T18:33:12.623Z,6.57
2023-01-18T18:35:57.025Z,6.28
2023-01-18T18:38:39.742Z,6.75
2023-01-18T18:41:22.378Z,6.68
2023-01-18T18:44:05.031Z,6.63
2023-01-18T18:46:48.408Z,6.50
2023-01-18T18:49:31.086Z,6.97
2023-01-18T18:52:15.105Z,6.82
2023-01-18T18:54:57.774Z,6.53
2023-01-18T18:57:40.435Z,6.60
2023-01-18T19:00:24.560Z,6.45
2023-01-18T19:03:08.143Z,6.93
2023-01-18T19:05:51.199Z,7.00
2023-01-18T19:08:35.182Z,6.30
2023-01-18T19:11:18.262Z,6.65
2023-01-18T19:14:01.109Z,6.72
2023-01-18T19:16:43.924Z,6.45
2023-01-18T19:19:27.186Z,6.70
2023-01-18T19:22:09.754Z,7.00
2023-01-18T19:24:53.805Z,6.20
2023-01-18T19:27:36.393Z,6.47
2023-01-18T19:30:20.019Z,6.07
2023-01-18T19:33:03.826Z,6.72
2023-01-18T19:35:47.335Z,6.18
2023-01-18T19:38:30.127Z,6.72
2023-01-18T19:41:14.320Z,6.97
2023-01-18T19:43:57.015Z,6.18
2023-01-18T19:46:39.873Z,6.72
2023-01-18T19:49:25.031Z,6.82
2023-01-18T19:52:07.752Z,6.93
2023-01-18T19:54:50.591Z,6.20
2023-01-18T19:57:34.563Z,6.78
2023-01-18T20:00:17.710Z,6.75
2023-01-18T20:03:00.929Z,6.60
2023-01-18T20:05:44.969Z,6.18
2023-01-18T20:08:27.651Z,6.28
2023-01-18T20:11:11.324Z,6.50
2023-01-18T20:13:55.947Z,6.03
2023-01-18T20:16:38.739Z,5.97
2023-01-18T20:19:21.450Z,6.55
2023-01-18T20:22:04.164Z,5.97
2023-01-18T20:24:47.058Z,6.35
2023-01-18T20:27:29.843Z,6.07
2023-01-18T20:30:14.363Z,6.32
2023-01-18T20:32:56.971Z,6.05
2023-01-18T20:35:39.913Z,6.30
2023-01-18T20:38:22.685Z,5.95
2023-01-18T20:41:06.189Z,5.93
2023-01-18T20:43:49.032Z,6.15
2023-01-18T20:46:33.062Z,5.80
2023-01-18T20:49:17.037Z,6.22
2023-01-18T20:52:00.879Z,5.93
2023-01-18T20:54:43.697Z,6.13
2023-01-18T20:57:30.290Z,6.22
2023-01-18T21:00:13.748Z,6.40
2023-01-18T21:02:58.120Z,6.45
2023-01-18T21:05:43.095Z,6.20
2023-01-18T21:08:25.696Z,6.15
2023-01-18T21:11:12.431Z,6.10
2023-01-18T21:13:55.447Z,6.25
2023-01-18T21:16:38.169Z,6.20
2023-01-18T21:19:22.282Z,6.00
2023-01-18T21:22:04.900Z,5.90
2023-01-18T21:24:48.842Z,5.93
2023-01-18T21:27:33.104Z,5.90
2023-01-18T21:30:16.673Z,6.43
2023-01-18T21:32:59.347Z,6.35
2023-01-18T21:35:43.387Z,6.75
2023-01-18T21:38:26.090Z,6.00
2023-01-18T21:41:26.016Z,6.65
2023-01-18T21:44:26.400Z,6.57
2023-01-18T21:47:09.003Z,6.03
2023-01-18T21:50:17.535Z,5.68
2023-01-18T21:53:19.882Z,5.57
2023-01-18T21:56:02.453Z,6.20
2023-01-18T21:58:58.121Z,5.70
2023-01-18T22:01:47.912Z,5.75
2023-01-18T22:04:48.198Z,5.95
2023-01-18T22:07:32.257Z,6.45
2023-01-18T22:10:16.679Z,5.97
2023-01-18T22:12:59.319Z,6.63
2023-01-18T22:15:41.902Z,6.15
2023-01-18T22:18:24.545Z,6.40
2023-01-18T22:21:07.290Z,5.72
2023-01-18T22:36:11.828Z,6.13
2023-01-18T22:38:54.902Z,6.32
2023-01-18T22:41:37.489Z,5.85
2023-01-18T22:44:20.063Z,5.70
2023-01-18T22:47:02.616Z,5.95
2023-01-18T22:49:45.240Z,6.50
2023-01-18T22:52:29.187Z,5.82
2023-01-18T22:55:11.995Z,6.00
2023-01-18T22:57:54.603Z,5.68
2023-01-18T23:00:37.175Z,6.07
2023-01-18T23:03:19.770Z,5.93
2023-01-18T23:06:02.371Z,6.13
2023-01-18T23:08:47.231Z,5.57
2023-01-18T23:11:30.601Z,5.97
2023-01-18T23:14:30.877Z,5.90
2023-01-18T23:17:31.114Z,5.50
2023-01-18T23:20:14.866Z,6.50
2023-01-18T23:22:57.490Z,5.28
2023-01-18T23:25:41.416Z,5.85
2023-01-18T23:28:27.625Z,6.30
2023-01-18T23:31:10.878Z,6.20
2023-01-18T23:33:53.495Z,6.25
2023-01-18T23:36:36.032Z,6.30
2023-01-18T23:39:36.193Z,6.00
2023-01-18T23:42:37.644Z,6.18
2023-01-18T23:45:37.971Z,5.95
2023-01-18T23:48:38.427Z,5.97
2023-01-18T23:51:38.686Z,6.43
2023-01-18T23:54:22.359Z,5.75
2023-01-18T23:57:05.582Z,5.68
2023-01-18T23:59:49.546Z,6.15
